Metropolis, IL

12:28 AM CST on November 23, 2014 (GMT -0600)
APRSWXNET Metropolis IL US | Change Station
CLOSE
Current Station
Personal Weather Station
Location: Metropolis, IL
Elevation: 383 ft
Nearby Weather Stations

Elev 383 ft 37.16 °N, 88.73 °W | Updated 58 days ago

Partly Cloudy
Partly Cloudy
50 °F
Feels Like 50 °F
N
6
Wind Variable Wind from SSE
Gusts 7 mph

Today
High -- | Low -- °F
--% Chance of Precip.
Yesterday
High -- | Low -- °F
Precip. -- in
6:42 AM 4:40 PM
New Moon, 1% visible
Pressure 29.94 in
Visibility 10.0 miles
Clouds Clear
Dew Point 44 °F
Humidity 79%
Rainfall 0.00 in
Snow Depth Not available.
UV 0 out of 12
Pollen 2.20 out of 12
Air Quality Not available.
Flu Activity Not available.
METAR KM30 230615Z AUTO 00000KT 10SM CLR 11/05 A2994 RMK AO2 T01120045

More Conditions Fewer Conditions

Pressure 29.94 in
Visibility 10.0 miles
Clouds Clear
Dew Point 44 °F
Humidity 79%
Rainfall 0.00 in
Snow Depth Not available.
UV 0 out of 12
Pollen 2.20 out of 12
Air Quality Not available.
Flu Activity Not available.
METAR KM30 230615Z AUTO 00000KT 10SM CLR 11/05 A2994 RMK AO2 T01120045

More Conditions Fewer Conditions

10-Day Weather Forecast

Almanac

Astronomy

Nov. 23, 2014 Rise Set
Actual Time
Civil Twilight
Nautical Twilight
Astronomical Twilight
Moon
Length of Visible Light
Length of Day
Tomorrow will be .
, % of the Moon is Illuminated

Today's Extremes

State Highs State Lows

Community

WunderPhotos

Upload Photos

1,773,019 photos uploaded!

WunderBlogs® & News

Nearby

Air Quality

  Air Quality AQ Index Pollutant
Not available.

Snow Depth

Station Depth Elevation

Earthquake Activity

City Distance Mag. Time & Date
Minimum magnitude displayed is 2.5.

Coastal Water Temperatures

Place Temperature

Nearby Weather Stations